Time;durP1;ratioP1;P1;durP2;ratioP2;P2;SDS_P1;SDS_P2;PMS_P1;PMS_P2;Temp;Humidity;BMP_temperature;BMP_pressure;BME280_temperature;BME280_humidity;BME280_pressure;Samples;Min_cycle;Max_cycle;Signal;HPM_P1;HPM_P2
2022/08/06 00:02:06;;;;;;;14.75;9.30;;;;;;;;;;1721157;82;21166;-65
2022/08/06 00:04:32;;;;;;;9.45;7.58;;;;;;;;;;1715382;83;21005;-65
2022/08/06 00:06:58;;;;;;;8.00;6.45;;;;;;;;;;1721852;82;21084;-64
2022/08/06 00:09:30;;;;;;;10.15;8.35;;;;;;;;;;1733370;82;21025;-65
2022/08/06 00:11:53;;;;;;;10.45;9.35;;;;;;;;;;1721421;82;21080;-65
2022/08/06 00:14:19;;;;;;;11.22;8.05;;;;;;;;;;1725104;82;21559;-66
2022/08/06 00:16:46;;;;;;;9.73;8.33;;;;;;;;;;1722945;82;21032;-65
2022/08/06 00:19:12;;;;;;;9.40;8.50;;;;;;;;;;1725773;82;21072;-65
2022/08/06 00:21:38;;;;;;;8.50;6.95;;;;;;;;;;1723375;82;21041;-65
2022/08/06 00:24:05;;;;;;;10.48;8.23;;;;;;;;;;1728511;82;21068;-65
2022/08/06 00:26:31;;;;;;;8.28;6.28;;;;;;;;;;1716520;83;21056;-65
2022/08/06 00:28:58;;;;;;;9.33;7.33;;;;;;;;;;1723722;82;21068;-65
2022/08/06 00:31:24;;;;;;;11.75;8.15;;;;;;;;;;1722929;82;21056;-65
2022/08/06 00:33:50;;;;;;;10.85;8.20;;;;;;;;;;1733172;82;21057;-65
2022/08/06 00:36:16;;;;;;;10.72;7.30;;;;;;;;;;1721860;83;21013;-65
2022/08/06 00:38:42;;;;;;;9.90;7.00;;;;;;;;;;1731218;82;20982;-65
2022/08/06 00:41:08;;;;;;;10.28;7.47;;;;;;;;;;1726762;82;21613;-65
2022/08/06 00:43:35;;;;;;;11.33;7.85;;;;;;;;;;1732702;82;21582;-64
2022/08/06 00:46:01;;;;;;;11.18;8.43;;;;;;;;;;1723974;82;21932;-64
2022/08/06 00:48:27;;;;;;;9.70;6.45;;;;;;;;;;1725225;82;21047;-65
2022/08/06 00:50:53;;;;;;;9.23;6.53;;;;;;;;;;1702861;82;21005;-64
2022/08/06 00:53:19;;;;;;;9.23;8.30;;;;;;;;;;1713512;82;22069;-64
2022/08/06 00:55:45;;;;;;;9.65;6.67;;;;;;;;;;1720400;82;21583;-65
2022/08/06 00:58:11;;;;;;;10.15;7.53;;;;;;;;;;1725840;82;21048;-65
2022/08/06 01:03:45;;;;;;;13.80;6.35;;;;;;;;;;1701615;80;75253;-63
2022/08/06 01:06:12;;;;;;;9.78;7.97;;;;;;;;;;1674922;82;21004;-63
2022/08/06 01:08:38;;;;;;;8.83;7.37;;;;;;;;;;1665171;86;21052;-64
2022/08/06 01:11:05;;;;;;;9.13;8.15;;;;;;;;;;1657022;86;21124;-64
2022/08/06 01:13:33;;;;;;;10.48;8.50;;;;;;;;;;1668407;84;21081;-63
2022/08/06 01:16:04;;;;;;;9.88;6.97;;;;;;;;;;1668035;85;21080;-64
2022/08/06 01:18:31;;;;;;;8.83;6.70;;;;;;;;;;1682236;84;21541;-64
2022/08/06 01:21:00;;;;;;;9.08;6.80;;;;;;;;;;1681798;85;21045;-64
2022/08/06 01:23:37;;;;;;;9.50;8.03;;;;;;;;;;1673082;84;21097;-64
2022/08/06 01:26:22;;;;;;;9.30;8.35;;;;;;;;;;1682092;85;21651;-64
2022/08/06 01:29:02;;;;;;;7.53;5.92;;;;;;;;;;1685635;85;21535;-64
2022/08/06 01:31:46;;;;;;;9.23;6.42;;;;;;;;;;1670562;86;21884;-64
2022/08/06 01:34:27;;;;;;;8.93;7.85;;;;;;;;;;1643392;87;21069;-64
2022/08/06 01:37:12;;;;;;;9.78;7.55;;;;;;;;;;1649664;86;21560;-64
2022/08/06 01:39:38;;;;;;;8.18;6.60;;;;;;;;;;1667284;86;21108;-64
2022/08/06 01:42:04;;;;;;;8.20;6.30;;;;;;;;;;1670155;84;21052;-64
2022/08/06 01:44:33;;;;;;;9.58;6.90;;;;;;;;;;1670502;85;21628;-64
2022/08/06 01:47:01;;;;;;;8.28;7.15;;;;;;;;;;1661109;85;21445;-64
2022/08/06 01:49:29;;;;;;;7.25;6.33;;;;;;;;;;1676836;85;21002;-64
2022/08/06 01:51:57;;;;;;;7.40;6.65;;;;;;;;;;1680889;84;21115;-64
2022/08/06 01:54:22;;;;;;;7.97;5.70;;;;;;;;;;1670464;85;21060;-64
2022/08/06 01:56:50;;;;;;;8.00;5.92;;;;;;;;;;1657527;86;21018;-64
2022/08/06 01:59:17;;;;;;;7.85;5.92;;;;;;;;;;1675863;85;21536;-64
2022/08/06 02:01:43;;;;;;;9.03;6.33;;;;;;;;;;1669043;84;21013;-64
2022/08/06 02:04:09;;;;;;;7.45;6.47;;;;;;;;;;1682500;84;21127;-64
2022/08/06 02:06:37;;;;;;;7.45;5.33;;;;;;;;;;1715759;82;21159;-64
2022/08/06 02:09:08;;;;;;;7.83;5.70;;;;;;;;;;1713481;82;21048;-64
2022/08/06 02:11:34;;;;;;;8.88;6.10;;;;;;;;;;1716700;82;21044;-64
2022/08/06 02:14:00;;;;;;;6.35;5.45;;;;;;;;;;1712761;84;21028;-64
2022/08/06 02:16:32;;;;;;;9.45;6.75;;;;;;;;;;1720084;82;21067;-64
2022/08/06 02:18:58;;;;;;;6.90;5.30;;;;;;;;;;1714195;82;21104;-64
2022/08/06 02:21:24;;;;;;;7.35;5.42;;;;;;;;;;1713033;82;21009;-64
2022/08/06 02:23:50;;;;;;;9.03;6.17;;;;;;;;;;1716296;82;21036;-64
2022/08/06 02:26:17;;;;;;;6.47;5.28;;;;;;;;;;1716274;82;21028;-64
2022/08/06 02:28:43;;;;;;;7.22;6.22;;;;;;;;;;1714254;82;21035;-64
2022/08/06 02:31:09;;;;;;;7.00;5.65;;;;;;;;;;1713192;82;21064;-64
2022/08/06 02:33:36;;;;;;;6.85;5.85;;;;;;;;;;1725040;82;21101;-64
2022/08/06 02:36:16;;;;;;;7.83;6.00;;;;;;;;;;1743279;82;21008;-64
2022/08/06 02:38:44;;;;;;;8.13;5.35;;;;;;;;;;1738660;82;21142;-64
2022/08/06 02:41:12;;;;;;;6.75;5.65;;;;;;;;;;1716364;82;21112;-64
2022/08/06 02:43:39;;;;;;;7.83;5.83;;;;;;;;;;1712760;83;21022;-64
2022/08/06 02:46:08;;;;;;;6.55;5.28;;;;;;;;;;1729338;82;21045;-64
2022/08/06 02:48:50;;;;;;;6.47;5.83;;;;;;;;;;1713963;82;21020;-64
2022/08/06 02:51:21;;;;;;;7.90;5.05;;;;;;;;;;1722158;82;21048;-65
2022/08/06 02:54:05;;;;;;;5.72;5.00;;;;;;;;;;1727755;82;21059;-64
2022/08/06 02:56:31;;;;;;;6.28;5.67;;;;;;;;;;1726921;82;21008;-64
2022/08/06 02:58:58;;;;;;;8.83;5.65;;;;;;;;;;1713992;82;21106;-64
2022/08/06 03:01:26;;;;;;;6.87;5.28;;;;;;;;;;1717539;82;21497;-64
2022/08/06 03:03:53;;;;;;;6.60;5.70;;;;;;;;;;1703100;82;21654;-64
2022/08/06 03:06:20;;;;;;;7.05;6.00;;;;;;;;;;1707870;83;21073;-64
2022/08/06 03:08:46;;;;;;;5.90;5.10;;;;;;;;;;1703605;84;21082;-64
2022/08/06 03:11:12;;;;;;;8.00;5.22;;;;;;;;;;1698811;82;21069;-64
2022/08/06 03:13:39;;;;;;;8.03;6.42;;;;;;;;;;1693041;84;21535;-64
2022/08/06 03:16:05;;;;;;;6.83;5.45;;;;;;;;;;1697502;83;21745;-64
2022/08/06 03:18:32;;;;;;;8.43;5.30;;;;;;;;;;1705343;84;21110;-65
2022/08/06 03:20:58;;;;;;;6.55;5.87;;;;;;;;;;1704860;83;21068;-64
2022/08/06 03:23:24;;;;;;;9.25;6.05;;;;;;;;;;1705588;82;21534;-65
2022/08/06 03:25:51;;;;;;;8.15;5.20;;;;;;;;;;1695294;82;21077;-64
2022/08/06 03:28:17;;;;;;;8.45;6.00;;;;;;;;;;1714305;83;21056;-64
2022/08/06 03:30:43;;;;;;;7.78;5.83;;;;;;;;;;1700906;84;21261;-64
2022/08/06 03:33:10;;;;;;;7.42;5.28;;;;;;;;;;1701668;82;21082;-64
2022/08/06 03:35:37;;;;;;;7.87;5.55;;;;;;;;;;1707599;84;21570;-64
2022/08/06 03:38:03;;;;;;;7.05;5.67;;;;;;;;;;1708174;84;21055;-64
2022/08/06 03:40:29;;;;;;;7.45;5.87;;;;;;;;;;1697789;84;21029;-64
2022/08/06 03:42:55;;;;;;;6.42;4.92;;;;;;;;;;1702139;82;21059;-64
2022/08/06 03:45:22;;;;;;;7.40;5.25;;;;;;;;;;1702911;83;21047;-65
2022/08/06 03:47:51;;;;;;;8.08;6.35;;;;;;;;;;1707940;84;21059;-65
2022/08/06 03:50:22;;;;;;;5.58;4.85;;;;;;;;;;1706834;84;21057;-64
2022/08/06 03:52:50;;;;;;;8.08;5.35;;;;;;;;;;1697200;82;21568;-64
2022/08/06 03:55:18;;;;;;;6.83;6.12;;;;;;;;;;1700855;84;21067;-64
2022/08/06 03:57:45;;;;;;;7.50;4.90;;;;;;;;;;1704281;84;21553;-64
2022/08/06 04:00:13;;;;;;;6.80;5.33;;;;;;;;;;1693786;84;21041;-65
2022/08/06 04:02:40;;;;;;;6.72;5.97;;;;;;;;;;1692733;82;21087;-65
2022/08/06 04:05:08;;;;;;;6.95;6.22;;;;;;;;;;1697452;83;21076;-64
2022/08/06 04:10:09;;;;;;;6.55;5.28;;;;;;;;;;1816643;79;23209;-62
2022/08/06 04:12:35;;;;;;;5.90;5.28;;;;;;;;;;1788435;80;21523;-63
2022/08/06 04:15:03;;;;;;;8.50;5.95;;;;;;;;;;1786177;80;21056;-64
2022/08/06 04:17:30;;;;;;;8.95;5.70;;;;;;;;;;1782397;80;21080;-64
2022/08/06 04:19:56;;;;;;;6.62;6.00;;;;;;;;;;1790436;80;21107;-64
2022/08/06 04:22:22;;;;;;;5.95;4.95;;;;;;;;;;1784503;80;21097;-64
2022/08/06 04:24:51;;;;;;;7.30;6.45;;;;;;;;;;1769480;80;21041;-65
2022/08/06 04:27:17;;;;;;;7.47;5.70;;;;;;;;;;1788127;80;21587;-65
2022/08/06 04:29:43;;;;;;;7.03;5.65;;;;;;;;;;1747446;80;21021;-65
2022/08/06 04:32:09;;;;;;;7.40;6.15;;;;;;;;;;1782190;79;21115;-65
2022/08/06 04:34:36;;;;;;;7.95;6.55;;;;;;;;;;1790018;80;21076;-64
2022/08/06 04:37:02;;;;;;;6.90;5.10;;;;;;;;;;1761217;81;21107;-65
2022/08/06 04:39:28;;;;;;;6.45;5.67;;;;;;;;;;1765404;80;21084;-65
2022/08/06 04:41:55;;;;;;;7.08;6.35;;;;;;;;;;1783396;80;21016;-64
2022/08/06 04:44:20;;;;;;;7.62;6.45;;;;;;;;;;1756741;80;20997;-64
2022/08/06 04:46:48;;;;;;;8.15;5.47;;;;;;;;;;1764764;80;21520;-64
2022/08/06 04:49:16;;;;;;;7.10;5.67;;;;;;;;;;1776782;80;21001;-63
2022/08/06 04:51:46;;;;;;;7.00;6.30;;;;;;;;;;1774044;80;21068;-65
2022/08/06 04:54:13;;;;;;;7.40;5.45;;;;;;;;;;1768782;79;21672;-65
2022/08/06 04:56:39;;;;;;;7.20;5.42;;;;;;;;;;1765083;80;21025;-65
2022/08/06 04:59:06;;;;;;;6.92;5.78;;;;;;;;;;1774631;80;21040;-65
2022/08/06 05:01:32;;;;;;;6.97;6.33;;;;;;;;;;1792321;80;21028;-65
2022/08/06 05:03:59;;;;;;;6.42;5.53;;;;;;;;;;1778380;80;21140;-65
2022/08/06 05:06:25;;;;;;;6.37;5.15;;;;;;;;;;1761171;81;21053;-64
2022/08/06 05:08:53;;;;;;;6.65;5.80;;;;;;;;;;1747485;81;21057;-64
2022/08/06 05:11:25;;;;;;;7.87;6.83;;;;;;;;;;1718183;82;21170;-65
2022/08/06 05:13:53;;;;;;;6.28;5.45;;;;;;;;;;1667862;85;21005;-65
2022/08/06 05:16:19;;;;;;;6.15;5.17;;;;;;;;;;1664605;86;21065;-64
2022/08/06 05:18:46;;;;;;;7.72;6.25;;;;;;;;;;1670192;86;21088;-64
2022/08/06 05:21:12;;;;;;;7.20;5.45;;;;;;;;;;1661924;86;21108;-65
2022/08/06 05:23:40;;;;;;;7.03;6.37;;;;;;;;;;1661418;85;21031;-65
2022/08/06 05:26:07;;;;;;;5.80;5.20;;;;;;;;;;1668203;85;21023;-65
2022/08/06 05:28:33;;;;;;;5.97;5.37;;;;;;;;;;1669899;85;21601;-64
2022/08/06 05:30:59;;;;;;;6.90;5.70;;;;;;;;;;1665410;86;21128;-65
2022/08/06 05:33:27;;;;;;;6.67;5.97;;;;;;;;;;1668151;85;21058;-65
2022/08/06 05:35:53;;;;;;;6.05;5.33;;;;;;;;;;1637289;86;21166;-65
2022/08/06 05:38:20;;;;;;;6.80;5.17;;;;;;;;;;1660293;86;21053;-66
2022/08/06 05:40:46;;;;;;;6.08;5.47;;;;;;;;;;1658537;86;21065;-63
2022/08/06 05:43:12;;;;;;;5.45;4.83;;;;;;;;;;1659697;86;21096;-64
2022/08/06 05:45:39;;;;;;;5.75;5.20;;;;;;;;;;1668719;86;21062;-64
2022/08/06 05:48:05;;;;;;;5.87;5.28;;;;;;;;;;1667198;86;21053;-64
2022/08/06 05:50:34;;;;;;;6.47;5.87;;;;;;;;;;1659296;86;21161;-64
2022/08/06 05:53:02;;;;;;;6.50;5.03;;;;;;;;;;1658407;86;21073;-65
2022/08/06 05:55:36;;;;;;;6.17;5.25;;;;;;;;;;1666102;86;21081;-65
2022/08/06 05:58:07;;;;;;;6.72;5.97;;;;;;;;;;1650014;86;21149;-65
2022/08/06 06:00:33;;;;;;;6.45;4.92;;;;;;;;;;1653217;86;21117;-65
2022/08/06 06:03:01;;;;;;;6.72;5.22;;;;;;;;;;1663716;85;21097;-65
2022/08/06 06:05:27;;;;;;;6.33;5.67;;;;;;;;;;1658206;86;21077;-65
2022/08/06 06:07:55;;;;;;;6.03;5.40;;;;;;;;;;1662751;86;21094;-64
2022/08/06 06:10:21;;;;;;;6.35;4.80;;;;;;;;;;1683850;85;21093;-65
2022/08/06 06:12:48;;;;;;;5.83;4.95;;;;;;;;;;1747511;80;21037;-65
2022/08/06 06:15:14;;;;;;;7.87;5.35;;;;;;;;;;1747563;82;21052;-65
2022/08/06 06:17:42;;;;;;;7.15;5.90;;;;;;;;;;1726563;82;21046;-64
2022/08/06 06:20:13;;;;;;;6.45;4.85;;;;;;;;;;1747461;81;21040;-66
2022/08/06 06:22:41;;;;;;;6.25;5.65;;;;;;;;;;1708552;84;21072;-64
2022/08/06 06:25:09;;;;;;;7.05;5.70;;;;;;;;;;1752422;81;21064;-64
2022/08/06 06:27:47;;;;;;;7.53;6.35;;;;;;;;;;1747837;82;21115;-64
2022/08/06 06:30:15;;;;;;;8.40;5.42;;;;;;;;;;1747994;82;21074;-64
2022/08/06 06:32:43;;;;;;;7.17;5.47;;;;;;;;;;1746696;82;21082;-63
2022/08/06 06:35:11;;;;;;;7.20;5.87;;;;;;;;;;1747661;81;21085;-63
2022/08/06 06:37:58;;;;;;;7.67;6.30;;;;;;;;;;1751264;81;21028;-63
2022/08/06 06:40:31;;;;;;;6.67;5.00;;;;;;;;;;1747577;82;21537;-63
2022/08/06 06:43:02;;;;;;;6.53;5.70;;;;;;;;;;1747100;82;21111;-64
2022/08/06 06:45:34;;;;;;;8.25;6.22;;;;;;;;;;1758515;81;21045;-64
2022/08/06 06:48:05;;;;;;;7.47;6.20;;;;;;;;;;1746904;81;21564;-65
2022/08/06 06:50:35;;;;;;;8.48;5.72;;;;;;;;;;1705448;83;21089;-65
2022/08/06 06:53:01;;;;;;;7.45;5.33;;;;;;;;;;1747894;82;21064;-65
2022/08/06 06:55:41;;;;;;;8.30;5.97;;;;;;;;;;1747493;82;21025;-65
2022/08/06 06:58:12;;;;;;;6.87;6.20;;;;;;;;;;1757671;81;21060;-64
2022/08/06 07:00:38;;;;;;;12.95;7.03;;;;;;;;;;1751331;80;21056;-63
2022/08/06 07:03:05;;;;;;;7.67;5.80;;;;;;;;;;1753768;81;21024;-63
2022/08/06 07:05:32;;;;;;;8.23;5.65;;;;;;;;;;1747313;82;22102;-63
2022/08/06 07:07:58;;;;;;;8.58;6.05;;;;;;;;;;1748571;80;21056;-63
2022/08/06 07:10:24;;;;;;;8.85;6.60;;;;;;;;;;1733901;81;21110;-64
2022/08/06 07:12:50;;;;;;;8.00;6.53;;;;;;;;;;1751429;81;22095;-64
2022/08/06 07:15:17;;;;;;;8.33;6.20;;;;;;;;;;1708110;83;21088;-64
2022/08/06 07:17:44;;;;;;;6.55;5.70;;;;;;;;;;1678715;84;21077;-64
2022/08/06 07:20:11;;;;;;;10.38;7.12;;;;;;;;;;1737201;81;21036;-63
2022/08/06 07:22:38;;;;;;;7.33;6.62;;;;;;;;;;1744944;80;21505;-64
2022/08/06 07:25:05;;;;;;;6.95;5.87;;;;;;;;;;1755200;81;20993;-64
2022/08/06 07:27:38;;;;;;;6.12;5.50;;;;;;;;;;1744791;82;21017;-64
2022/08/06 07:30:05;;;;;;;;;;;;;;;;;;1751854;81;20985;-64
2022/08/06 07:32:33;;;;;;;7.83;6.65;;;;;;;;;;1733437;81;20139;-65
2022/08/06 07:35:00;;;;;;;8.60;5.60;;;;;;;;;;1741638;82;21028;-64
2022/08/06 07:37:26;;;;;;;7.60;6.70;;;;;;;;;;1739698;81;21080;-64
2022/08/06 07:39:53;;;;;;;6.90;6.20;;;;;;;;;;1741968;81;21135;-64
2022/08/06 07:42:19;;;;;;;7.65;6.30;;;;;;;;;;1739107;82;21083;-64
2022/08/06 07:44:47;;;;;;;6.15;5.22;;;;;;;;;;1739264;82;21059;-64
2022/08/06 07:47:14;;;;;;;6.53;5.72;;;;;;;;;;1738034;82;21057;-64
2022/08/06 07:49:41;;;;;;;20.85;18.85;;;;;;;;;;1744823;81;21069;-65
2022/08/06 07:52:07;;;;;;;9.58;8.58;;;;;;;;;;1745033;80;21540;-65
2022/08/06 07:54:33;;;;;;;7.72;6.92;;;;;;;;;;1741209;82;21085;-64
2022/08/06 07:57:00;;;;;;;7.90;7.10;;;;;;;;;;1739991;80;21088;-65
2022/08/06 07:59:26;;;;;;;7.35;5.87;;;;;;;;;;1748445;81;21053;-65
2022/08/06 08:01:52;;;;;;;7.37;6.25;;;;;;;;;;1747420;81;21542;-65
2022/08/06 08:07:04;;;;;;;7.17;6.33;;;;;;;;;;1747100;81;21477;-63
2022/08/06 08:09:30;;;;;;;7.25;6.55;;;;;;;;;;1741664;81;21033;-64
2022/08/06 08:11:57;;;;;;;6.45;5.60;;;;;;;;;;1756538;80;21032;-64
2022/08/06 08:14:23;;;;;;;9.85;6.55;;;;;;;;;;1754432;81;21076;-64
2022/08/06 08:16:50;;;;;;;7.40;6.50;;;;;;;;;;1755044;80;21009;-65
2022/08/06 08:19:23;;;;;;;7.33;5.72;;;;;;;;;;1755708;80;21293;-64
2022/08/06 08:21:50;;;;;;;8.28;7.42;;;;;;;;;;1755139;82;21548;-64
2022/08/06 08:24:16;;;;;;;8.13;6.83;;;;;;;;;;1756035;80;21033;-64
2022/08/06 08:26:42;;;;;;;9.23;7.33;;;;;;;;;;1755002;80;21052;-66
2022/08/06 08:29:09;;;;;;;8.85;7.87;;;;;;;;;;1755251;81;21034;-65
2022/08/06 08:31:37;;;;;;;8.88;6.85;;;;;;;;;;1748853;80;21056;-65
2022/08/06 08:34:03;;;;;;;9.68;7.70;;;;;;;;;;1755645;81;21524;-65
2022/08/06 08:36:29;;;;;;;9.33;6.85;;;;;;;;;;1721367;82;21501;-66
2022/08/06 08:38:57;;;;;;;10.68;7.83;;;;;;;;;;1748856;80;21001;-66
2022/08/06 08:41:26;;;;;;;8.78;7.35;;;;;;;;;;1756111;80;21001;-66
2022/08/06 08:43:54;;;;;;;11.68;7.45;;;;;;;;;;1753937;80;21468;-66
2022/08/06 08:46:20;;;;;;;8.48;7.10;;;;;;;;;;1743278;82;21664;-66
2022/08/06 08:48:46;;;;;;;12.37;11.18;;;;;;;;;;1754933;80;21532;-65
2022/08/06 08:51:13;;;;;;;9.73;8.73;;;;;;;;;;1754613;80;21027;-65
2022/08/06 08:53:44;;;;;;;7.92;7.12;;;;;;;;;;1755650;82;21084;-66
2022/08/06 08:56:11;;;;;;;11.22;7.22;;;;;;;;;;1755626;82;21033;-64
2022/08/06 08:58:38;;;;;;;11.10;7.95;;;;;;;;;;1756686;80;21515;-64
2022/08/06 09:01:08;;;;;;;8.35;7.37;;;;;;;;;;1760912;80;21065;-65
2022/08/06 09:03:35;;;;;;;8.60;7.25;;;;;;;;;;1755288;80;21143;-65
2022/08/06 09:06:03;;;;;;;8.00;7.10;;;;;;;;;;1753516;80;21509;-65
2022/08/06 09:08:29;;;;;;;8.85;7.72;;;;;;;;;;1752358;80;21052;-65
2022/08/06 09:10:55;;;;;;;9.00;7.12;;;;;;;;;;1748983;82;21166;-64
2022/08/06 09:13:23;;;;;;;8.13;7.15;;;;;;;;;;1745342;82;21038;-65
2022/08/06 09:15:50;;;;;;;7.87;7.08;;;;;;;;;;1748341;80;21049;-65
2022/08/06 09:18:16;;;;;;;8.53;6.58;;;;;;;;;;1745358;81;21152;-65
2022/08/06 09:20:42;;;;;;;9.28;5.92;;;;;;;;;;1748887;81;21060;-65
2022/08/06 09:23:08;;;;;;;7.55;6.75;;;;;;;;;;1747714;81;21034;-65
2022/08/06 09:25:42;;;;;;;8.43;7.35;;;;;;;;;;1749407;80;21698;-65
2022/08/06 09:28:10;;;;;;;7.53;6.28;;;;;;;;;;1746464;82;21046;-65
2022/08/06 09:30:36;;;;;;;7.45;6.70;;;;;;;;;;1747268;81;21120;-64
2022/08/06 09:33:03;;;;;;;7.85;7.00;;;;;;;;;;1746790;81;21078;-64
2022/08/06 09:35:29;;;;;;;8.00;6.90;;;;;;;;;;1719004;82;21564;-64
2022/08/06 09:38:02;;;;;;;7.37;6.42;;;;;;;;;;1710044;82;21041;-64
2022/08/06 09:40:28;;;;;;;6.80;6.10;;;;;;;;;;1700976;82;21052;-64
2022/08/06 09:42:54;;;;;;;7.92;7.15;;;;;;;;;;1683295;84;21021;-63
2022/08/06 09:45:21;;;;;;;7.25;6.40;;;;;;;;;;1751666;80;21002;-64
2022/08/06 09:47:47;;;;;;;9.95;7.40;;;;;;;;;;1748728;81;21057;-64
2022/08/06 09:50:13;;;;;;;7.92;6.58;;;;;;;;;;1746823;80;20977;-64
2022/08/06 09:52:39;;;;;;;7.85;7.15;;;;;;;;;;1712150;84;21019;-65
2022/08/06 09:55:06;;;;;;;7.72;7.00;;;;;;;;;;1729807;82;21044;-64
2022/08/06 09:57:45;;;;;;;10.43;7.20;;;;;;;;;;1714169;84;21082;-66
2022/08/06 10:00:11;;;;;;;8.80;8.00;;;;;;;;;;1750385;81;21485;-67
2022/08/06 10:02:38;;;;;;;7.97;7.17;;;;;;;;;;1748978;81;21135;-65
2022/08/06 10:05:09;;;;;;;9.08;7.50;;;;;;;;;;1736049;81;21020;-66
2022/08/06 10:07:35;;;;;;;8.48;6.85;;;;;;;;;;1746334;81;21049;-64
2022/08/06 10:10:00;;;;;;;8.10;6.85;;;;;;;;;;1747653;81;21497;-65
2022/08/06 10:12:27;;;;;;;8.03;7.22;;;;;;;;;;1729246;81;21033;-66
2022/08/06 10:14:53;;;;;;;9.05;8.00;;;;;;;;;;1745078;81;20998;-66
2022/08/06 10:17:20;;;;;;;8.45;7.55;;;;;;;;;;1749951;80;21001;-66
2022/08/06 10:20:07;;;;;;;9.60;7.67;;;;;;;;;;1746114;81;21032;-66
2022/08/06 10:22:33;;;;;;;8.30;7.50;;;;;;;;;;1747156;80;21567;-65
2022/08/06 10:25:01;;;;;;;8.43;7.62;;;;;;;;;;1749018;81;21019;-66
2022/08/06 10:27:34;;;;;;;9.95;7.62;;;;;;;;;;1743050;81;21045;-65
2022/08/06 10:30:02;;;;;;;7.78;6.00;;;;;;;;;;1746875;81;21026;-66
2022/08/06 10:32:34;;;;;;;8.63;7.00;;;;;;;;;;1761456;81;21025;-65
2022/08/06 10:35:00;;;;;;;10.78;7.30;;;;;;;;;;1731678;81;21037;-66
2022/08/06 10:37:26;;;;;;;6.97;6.22;;;;;;;;;;1756609;81;21008;-63
2022/08/06 10:39:56;;;;;;;8.75;6.80;;;;;;;;;;1707316;82;21053;-64
2022/08/06 10:42:22;;;;;;;14.45;7.47;;;;;;;;;;1672094;85;21050;-66
2022/08/06 10:44:49;;;;;;;8.18;7.37;;;;;;;;;;1747858;82;21032;-66
2022/08/06 10:47:15;;;;;;;7.33;6.58;;;;;;;;;;1700956;82;21042;-64
2022/08/06 10:49:41;;;;;;;9.93;6.92;;;;;;;;;;1703166;83;21009;-63
2022/08/06 10:52:08;;;;;;;8.35;7.62;;;;;;;;;;1754996;81;21065;-64
2022/08/06 10:54:37;;;;;;;8.25;6.97;;;;;;;;;;1730631;80;21030;-64
2022/08/06 10:57:03;;;;;;;7.80;6.28;;;;;;;;;;1676263;84;21057;-64
2022/08/06 10:59:29;;;;;;;8.83;7.35;;;;;;;;;;1739242;81;21077;-63
2022/08/06 11:01:57;;;;;;;9.18;7.85;;;;;;;;;;1742772;81;20993;-64
2022/08/06 11:04:25;;;;;;;7.55;6.72;;;;;;;;;;1741524;80;21009;-65
2022/08/06 11:07:02;;;;;;;7.08;6.37;;;;;;;;;;1737767;81;21096;-64
2022/08/06 11:09:30;;;;;;;12.05;10.85;;;;;;;;;;1745364;81;21103;-64
2022/08/06 11:12:02;;;;;;;10.80;9.25;;;;;;;;;;1748431;80;21044;-65
2022/08/06 11:14:28;;;;;;;7.80;7.00;;;;;;;;;;1731468;80;21061;-64
2022/08/06 11:16:58;;;;;;;14.20;6.67;;;;;;;;;;1750814;80;21032;-64
2022/08/06 11:19:41;;;;;;;6.45;5.75;;;;;;;;;;1745340;80;21034;-65
2022/08/06 11:22:07;;;;;;;;;;;;;;;;;;1752882;82;21088;-64
2022/08/06 11:24:34;;;;;;;8.15;5.87;;;;;;;;;;1756005;80;20874;-66
2022/08/06 11:27:00;;;;;;;7.15;6.05;;;;;;;;;;1755051;82;21137;-64
2022/08/06 11:29:26;;;;;;;7.47;5.85;;;;;;;;;;1750169;80;21575;-65
2022/08/06 11:31:52;;;;;;;7.85;6.55;;;;;;;;;;1755253;80;21185;-63
2022/08/06 11:34:19;;;;;;;7.20;5.47;;;;;;;;;;1755297;82;21066;-66
2022/08/06 11:36:47;;;;;;;6.95;5.83;;;;;;;;;;1755106;80;21001;-66
2022/08/06 11:39:14;;;;;;;6.25;5.45;;;;;;;;;;1755724;82;21087;-65
2022/08/06 11:41:48;;;;;;;6.10;5.50;;;;;;;;;;1752518;80;21053;-64
2022/08/06 11:44:18;;;;;;;6.45;5.85;;;;;;;;;;1752075;82;21095;-65
2022/08/06 11:46:45;;;;;;;6.33;5.70;;;;;;;;;;1759421;80;21078;-64
2022/08/06 11:49:16;;;;;;;8.00;5.92;;;;;;;;;;1776467;80;21011;-63
2022/08/06 11:51:56;;;;;;;6.00;5.40;;;;;;;;;;1719865;83;21136;-63
2022/08/06 11:54:26;;;;;;;7.22;6.53;;;;;;;;;;1741055;80;21029;-64
2022/08/06 11:57:06;;;;;;;6.33;5.72;;;;;;;;;;1742778;80;21014;-65
2022/08/06 11:59:34;;;;;;;6.97;6.37;;;;;;;;;;1739558;80;21061;-63
2022/08/06 12:02:02;;;;;;;7.42;5.70;;;;;;;;;;1751067;80;21496;-65
2022/08/06 12:04:39;;;;;;;7.37;6.28;;;;;;;;;;1755348;80;21091;-65
2022/08/06 12:07:20;;;;;;;6.75;5.55;;;;;;;;;;1737205;82;21017;-65
2022/08/06 12:09:48;;;;;;;9.20;8.20;;;;;;;;;;1768501;80;21020;-65
2022/08/06 12:12:28;;;;;;;10.40;9.40;;;;;;;;;;1760335;81;21110;-65
2022/08/06 12:14:55;;;;;;;6.83;5.90;;;;;;;;;;1759182;80;21546;-65
2022/08/06 12:17:21;;;;;;;6.72;6.03;;;;;;;;;;1757562;80;21036;-64
2022/08/06 12:19:49;;;;;;;7.47;5.78;;;;;;;;;;1751980;80;21087;-65
2022/08/06 12:22:15;;;;;;;6.70;6.05;;;;;;;;;;1749585;80;21040;-65
2022/08/06 12:24:42;;;;;;;9.40;6.28;;;;;;;;;;1708328;83;21049;-64
2022/08/06 12:27:09;;;;;;;12.40;5.47;;;;;;;;;;1756955;80;21091;-64
2022/08/06 12:29:36;;;;;;;6.25;5.65;;;;;;;;;;1751646;81;21105;-64
2022/08/06 12:32:26;;;;;;;6.22;4.78;;;;;;;;;;1740992;81;21076;-64
2022/08/06 12:34:49;;;;;;;6.10;5.08;;;;;;;;;;1757969;80;21017;-64
2022/08/06 12:37:16;;;;;;;6.20;5.45;;;;;;;;;;1752837;80;20953;-64
2022/08/06 12:42:27;;;;;;;8.33;7.35;;;;;;;;;;1756631;80;21044;-64
2022/08/06 12:44:54;;;;;;;8.10;6.08;;;;;;;;;;1760097;81;21044;-64
2022/08/06 12:47:21;;;;;;;9.18;8.35;;;;;;;;;;1744478;80;21033;-65
2022/08/06 12:49:47;;;;;;;8.30;7.42;;;;;;;;;;1768195;80;21059;-64
2022/08/06 12:52:16;;;;;;;8.75;6.67;;;;;;;;;;1732779;81;21033;-64
2022/08/06 12:54:42;;;;;;;7.25;6.05;;;;;;;;;;1772162;80;21584;-64
2022/08/06 12:57:09;;;;;;;7.33;6.60;;;;;;;;;;1778975;80;21063;-64
2022/08/06 12:59:36;;;;;;;7.60;6.47;;;;;;;;;;1725220;83;21108;-64
2022/08/06 13:02:02;;;;;;;8.25;5.90;;;;;;;;;;1694474;83;21088;-64
2022/08/06 13:04:29;;;;;;;7.45;6.12;;;;;;;;;;1712376;84;21122;-64
2022/08/06 13:06:55;;;;;;;7.03;6.33;;;;;;;;;;1725105;82;21059;-64
2022/08/06 13:09:29;;;;;;;8.85;6.42;;;;;;;;;;1715314;82;21025;-64
2022/08/06 13:11:56;;;;;;;8.13;6.22;;;;;;;;;;1716231;82;21604;-63
2022/08/06 13:14:22;;;;;;;6.92;5.55;;;;;;;;;;1748131;80;21620;-65
2022/08/06 13:16:48;;;;;;;6.97;6.30;;;;;;;;;;1733800;81;21040;-64
2022/08/06 13:19:15;;;;;;;8.55;7.45;;;;;;;;;;1756006;81;21136;-65
2022/08/06 13:21:43;;;;;;;8.33;7.10;;;;;;;;;;1755665;82;21083;-65
2022/08/06 13:24:09;;;;;;;13.40;7.10;;;;;;;;;;1754426;81;21468;-65
2022/08/06 13:26:37;;;;;;;7.20;6.42;;;;;;;;;;1754257;82;21544;-64
2022/08/06 13:29:04;;;;;;;6.67;6.08;;;;;;;;;;1753510;80;21057;-66
2022/08/06 13:31:30;;;;;;;6.30;5.30;;;;;;;;;;1752992;80;20976;-66
2022/08/06 13:34:00;;;;;;;5.80;5.20;;;;;;;;;;1755206;82;21064;-65
2022/08/06 13:36:27;;;;;;;8.18;6.05;;;;;;;;;;1754291;81;21024;-65
2022/08/06 13:38:53;;;;;;;7.10;6.40;;;;;;;;;;1756287;81;21024;-65
2022/08/06 13:41:26;;;;;;;7.40;5.75;;;;;;;;;;1773325;80;21033;-65
2022/08/06 13:43:52;;;;;;;6.40;5.80;;;;;;;;;;1678218;84;21173;-65
2022/08/06 13:46:18;;;;;;;6.80;5.90;;;;;;;;;;1693992;84;21088;-65
2022/08/06 13:48:45;;;;;;;7.03;5.33;;;;;;;;;;1692963;83;21049;-65
2022/08/06 13:51:12;;;;;;;6.70;5.72;;;;;;;;;;1755185;80;21056;-64
2022/08/06 13:53:38;;;;;;;7.17;5.28;;;;;;;;;;1755210;80;21075;-65
2022/08/06 13:56:04;;;;;;;6.03;4.97;;;;;;;;;;1755570;82;21080;-64
2022/08/06 13:58:31;;;;;;;6.30;5.70;;;;;;;;;;1755175;81;21076;-64
2022/08/06 14:00:57;;;;;;;6.70;5.72;;;;;;;;;;1755421;80;21056;-65
2022/08/06 14:03:24;;;;;;;5.95;5.25;;;;;;;;;;1754402;80;21557;-64
2022/08/06 14:05:51;;;;;;;6.33;5.50;;;;;;;;;;1738349;80;21012;-64
2022/08/06 14:08:17;;;;;;;6.47;5.87;;;;;;;;;;1754290;81;21045;-64
2022/08/06 14:10:44;;;;;;;6.37;5.28;;;;;;;;;;1754714;81;21113;-66
2022/08/06 14:13:16;;;;;;;7.62;5.78;;;;;;;;;;1746938;81;21061;-65
2022/08/06 14:15:46;;;;;;;10.43;5.45;;;;;;;;;;1744796;81;21098;-64
2022/08/06 14:18:13;;;;;;;6.47;4.95;;;;;;;;;;1738830;82;21516;-66
2022/08/06 14:20:39;;;;;;;6.42;5.28;;;;;;;;;;1745856;80;21057;-66
2022/08/06 14:23:05;;;;;;;6.00;5.47;;;;;;;;;;1731050;81;21030;-64
2022/08/06 14:25:32;;;;;;;7.03;5.95;;;;;;;;;;1741389;81;21096;-66
2022/08/06 14:27:59;;;;;;;6.35;4.95;;;;;;;;;;1741041;81;21544;-64
2022/08/06 14:30:27;;;;;;;6.22;5.62;;;;;;;;;;1747655;81;21080;-64
2022/08/06 14:32:53;;;;;;;5.47;4.97;;;;;;;;;;1746192;81;21051;-67
2022/08/06 14:35:20;;;;;;;7.75;5.10;;;;;;;;;;1737379;80;21528;-66
2022/08/06 14:37:48;;;;;;;10.85;5.83;;;;;;;;;;1750103;81;21129;-66
2022/08/06 14:40:14;;;;;;;9.40;5.75;;;;;;;;;;1737657;81;21069;-64
2022/08/06 14:45:25;;;;;;;6.58;5.87;;;;;;;;;;1748168;81;21525;-65
2022/08/06 14:47:51;;;;;;;7.83;6.12;;;;;;;;;;1740753;81;21612;-64
2022/08/06 14:50:17;;;;;;;7.08;6.10;;;;;;;;;;1757693;81;21013;-64
2022/08/06 14:52:44;;;;;;;5.85;5.03;;;;;;;;;;1705390;82;21108;-65
2022/08/06 14:55:10;;;;;;;5.85;5.20;;;;;;;;;;1750503;81;21088;-64
2022/08/06 14:57:37;;;;;;;6.17;5.58;;;;;;;;;;1747211;80;21459;-64
2022/08/06 15:00:05;;;;;;;5.65;5.10;;;;;;;;;;1704676;82;21057;-64
2022/08/06 15:02:31;;;;;;;6.12;5.53;;;;;;;;;;1674267;84;21552;-65